Time;durP1;ratioP1;P1;durP2;ratioP2;P2;SDS_P1;SDS_P2;PMS_P1;PMS_P2;Temp;Humidity;BMP_temperature;BMP_pressure;BME280_temperature;BME280_humidity;BME280_pressure;Samples;Min_cycle;Max_cycle;Signal;HPM_P1;HPM_P2
2021/11/29 00:00:19;;;;;;;;;;;21.80;51.10;;;;;;702373;28;778;-83
2021/11/29 00:00:42;;;;;;;;;;;21.80;51.20;;;;;;702742;28;1240;-82
2021/11/29 00:01:07;;;;;;;;;;;21.80;51.10;;;;;;702235;28;806;-82
2021/11/29 00:01:29;;;;;;;;;;;21.80;51.10;;;;;;702398;28;849;-85
2021/11/29 00:01:52;;;;;;;;;;;21.80;51.20;;;;;;702237;28;877;-83
2021/11/29 00:02:14;;;;;;;;;;;21.80;51.10;;;;;;702319;28;852;-82
2021/11/29 00:02:34;;;;;;;;;;;21.80;51.20;;;;;;702132;28;1285;-83
2021/11/29 00:02:57;;;;;;;;;;;21.80;51.20;;;;;;702073;28;852;-83
2021/11/29 00:03:18;;;;;;;;;;;21.80;51.30;;;;;;702065;28;929;-85
2021/11/29 00:03:39;;;;;;;;;;;21.80;51.20;;;;;;702073;28;810;-83
2021/11/29 00:04:00;;;;;;;;;;;21.80;51.20;;;;;;702233;28;806;-83
2021/11/29 00:04:21;;;;;;;;;;;21.80;51.30;;;;;;702117;28;794;-82
2021/11/29 00:04:43;;;;;;;;;;;21.80;51.20;;;;;;702118;28;1140;-81
2021/11/29 00:05:04;;;;;;;;;;;21.80;52.30;;;;;;702346;28;881;-83
2021/11/29 00:05:25;;;;;;;;;;;21.80;51.20;;;;;;702261;28;795;-83
2021/11/29 00:05:47;;;;;;;;;;;21.80;51.20;;;;;;702271;28;838;-83
2021/11/29 00:06:07;;;;;;;;;;;21.80;51.20;;;;;;702337;28;893;-83
2021/11/29 00:06:28;;;;;;;;;;;21.80;51.20;;;;;;702394;28;862;-84
2021/11/29 00:06:49;;;;;;;;;;;21.80;51.20;;;;;;702292;28;1901;-84
2021/11/29 00:07:09;;;;;;;;;;;21.80;51.20;;;;;;702211;28;814;-83
2021/11/29 00:07:30;;;;;;;;;;;21.80;51.20;;;;;;704339;28;1324;-84
2021/11/29 00:07:51;;;;;;;;;;;21.80;51.20;;;;;;705136;28;822;-83
2021/11/29 00:08:11;;;;;;;;;;;21.80;51.20;;;;;;705187;28;908;-84
2021/11/29 00:08:32;;;;;;;;;;;21.80;51.10;;;;;;705239;28;805;-79
2021/11/29 00:08:52;;;;;;;;;;;21.80;51.30;;;;;;705078;28;809;-84
2021/11/29 00:09:13;;;;;;;;;;;21.80;51.20;;;;;;705034;28;937;-82
2021/11/29 00:09:34;;;;;;;;;;;21.80;51.10;;;;;;705204;28;806;-80
2021/11/29 00:09:56;;;;;;;;;;;21.80;51.30;;;;;;705125;28;817;-79
2021/11/29 00:10:17;;;;;;;;;;;21.80;51.20;;;;;;704673;28;1183;-80
2021/11/29 00:10:37;;;;;;;;;;;21.80;51.20;;;;;;704672;28;1178;-81
2021/11/29 00:10:58;;;;;;;;;;;21.80;51.30;;;;;;705155;28;1376;-77
2021/11/29 00:11:19;;;;;;;;;;;21.80;51.20;;;;;;705017;28;1332;-81
2021/11/29 00:11:40;;;;;;;;;;;21.80;51.20;;;;;;705156;28;869;-83
2021/11/29 00:12:00;;;;;;;;;;;21.80;51.20;;;;;;705237;28;805;-81
2021/11/29 00:12:21;;;;;;;;;;;21.80;51.30;;;;;;705241;28;829;-82
2021/11/29 00:12:42;;;;;;;;;;;21.80;51.30;;;;;;705120;28;881;-83
2021/11/29 00:13:03;;;;;;;;;;;21.80;51.20;;;;;;705168;28;809;-83
2021/11/29 00:13:23;;;;;;;;;;;21.80;51.30;;;;;;705257;28;993;-78
2021/11/29 00:13:44;;;;;;;;;;;21.80;51.20;;;;;;705081;28;797;-80
2021/11/29 00:14:05;;;;;;;;;;;21.80;52.30;;;;;;705183;28;817;-83
2021/11/29 00:14:26;;;;;;;;;;;21.80;51.30;;;;;;705096;28;967;-83
2021/11/29 00:14:46;;;;;;;;;;;21.80;51.20;;;;;;705307;28;861;-84
2021/11/29 00:15:08;;;;;;;;;;;21.80;51.20;;;;;;705090;28;931;-81
2021/11/29 00:15:29;;;;;;;;;;;21.80;51.20;;;;;;705181;28;877;-81
2021/11/29 00:15:50;;;;;;;;;;;21.80;51.20;;;;;;705092;28;881;-82
2021/11/29 00:16:10;;;;;;;;;;;21.80;51.20;;;;;;705228;28;943;-84
2021/11/29 00:16:31;;;;;;;;;;;21.80;51.20;;;;;;705188;28;892;-83
2021/11/29 00:16:52;;;;;;;;;;;21.80;51.20;;;;;;705081;28;806;-82
2021/11/29 00:17:13;;;;;;;;;;;21.80;51.20;;;;;;705075;28;862;-83
2021/11/29 00:17:34;;;;;;;;;;;21.80;51.30;;;;;;705216;28;817;-81
2021/11/29 00:17:55;;;;;;;;;;;21.80;51.30;;;;;;705190;28;877;-84
2021/11/29 00:18:15;;;;;;;;;;;21.80;51.20;;;;;;705081;28;853;-78
2021/11/29 00:18:36;;;;;;;;;;;21.80;51.20;;;;;;705284;28;774;-85
2021/11/29 00:18:57;;;;;;;;;;;21.80;51.20;;;;;;705144;28;834;-83
2021/11/29 00:19:18;;;;;;;;;;;21.80;51.20;;;;;;705181;28;901;-79
2021/11/29 00:19:38;;;;;;;;;;;21.80;51.20;;;;;;705241;28;805;-84
2021/11/29 00:19:59;;;;;;;;;;;21.80;51.30;;;;;;705244;28;880;-85
2021/11/29 00:20:20;;;;;;;;;;;21.80;51.20;;;;;;710020;27;1243;-84
2021/11/29 00:20:44;;;;;;;;;;;21.80;51.20;;;;;;710650;27;848;-80
2021/11/29 00:21:05;;;;;;;;;;;21.80;51.20;;;;;;710718;27;785;-77
2021/11/29 00:21:26;;;;;;;;;;;21.80;51.20;;;;;;710735;27;860;-82
2021/11/29 00:21:46;;;;;;;;;;;21.80;51.20;;;;;;710725;27;801;-82
2021/11/29 00:22:07;;;;;;;;;;;21.80;51.30;;;;;;707099;27;1252;-81
2021/11/29 00:22:27;;;;;;;;;;;21.80;51.20;;;;;;702388;28;920;-82
2021/11/29 00:22:48;;;;;;;;;;;21.80;51.20;;;;;;702530;28;877;-79
2021/11/29 00:23:10;;;;;;;;;;;21.80;51.20;;;;;;702403;28;695;-84
2021/11/29 00:23:31;;;;;;;;;;;21.80;51.20;;;;;;703402;28;1365;-82
2021/11/29 00:23:51;;;;;;;;;;;21.80;51.20;;;;;;705254;28;766;-82
2021/11/29 00:24:12;;;;;;;;;;;21.80;51.20;;;;;;704656;28;1226;-82
2021/11/29 00:24:32;;;;;;;;;;;21.80;51.20;;;;;;704983;28;877;-84
2021/11/29 00:24:53;;;;;;;;;;;21.80;51.20;;;;;;704971;28;794;-82
2021/11/29 00:25:14;;;;;;;;;;;21.80;51.20;;;;;;705005;28;805;-81
2021/11/29 00:25:34;;;;;;;;;;;21.80;51.30;;;;;;704955;28;910;-81
2021/11/29 00:25:55;;;;;;;;;;;21.80;51.20;;;;;;705065;28;821;-81
2021/11/29 00:26:16;;;;;;;;;;;21.80;51.30;;;;;;704972;28;837;-83
2021/11/29 00:26:37;;;;;;;;;;;21.80;51.20;;;;;;705255;28;885;-81
2021/11/29 00:26:57;;;;;;;;;;;21.80;51.30;;;;;;705147;28;1959;-84
2021/11/29 00:27:18;;;;;;;;;;;21.80;51.20;;;;;;705145;28;790;-83
2021/11/29 00:27:39;;;;;;;;;;;21.80;51.20;;;;;;705191;28;921;-82
2021/11/29 00:27:59;;;;;;;;;;;21.80;51.20;;;;;;705261;28;814;-82
2021/11/29 00:28:20;;;;;;;;;;;21.80;51.30;;;;;;705069;28;865;-81
2021/11/29 00:28:42;;;;;;;;;;;21.80;51.20;;;;;;704454;28;1246;-81
2021/11/29 00:29:03;;;;;;;;;;;21.80;51.20;;;;;;704974;28;924;-82
2021/11/29 00:29:23;;;;;;;;;;;21.80;51.30;;;;;;704986;28;924;-81
2021/11/29 00:29:44;;;;;;;;;;;21.80;51.20;;;;;;704862;28;948;-82
2021/11/29 00:30:06;;;;;;;;;;;21.80;51.20;;;;;;705051;28;782;-82
2021/11/29 00:30:27;;;;;;;;;;;21.80;51.20;;;;;;704700;28;1280;-83
2021/11/29 00:30:47;;;;;;;;;;;21.80;51.20;;;;;;705046;28;1173;-82
2021/11/29 00:31:08;;;;;;;;;;;21.80;51.20;;;;;;704894;28;842;-82
2021/11/29 00:31:29;;;;;;;;;;;21.80;51.20;;;;;;704904;28;818;-84
2021/11/29 00:31:49;;;;;;;;;;;21.80;51.20;;;;;;704727;28;967;-86
2021/11/29 00:32:11;;;;;;;;;;;21.80;51.30;;;;;;702063;28;890;-82
2021/11/29 00:32:32;;;;;;;;;;;21.80;51.20;;;;;;702503;28;810;-85
2021/11/29 00:32:52;;;;;;;;;;;21.80;51.20;;;;;;704818;28;806;-85
2021/11/29 00:33:13;;;;;;;;;;;21.80;51.20;;;;;;704815;28;844;-85
2021/11/29 00:33:33;;;;;;;;;;;21.80;51.20;;;;;;704954;28;806;-80
2021/11/29 00:33:54;;;;;;;;;;;21.80;51.20;;;;;;704890;28;906;-83
2021/11/29 00:34:14;;;;;;;;;;;21.80;51.30;;;;;;705083;28;912;-85
2021/11/29 00:34:35;;;;;;;;;;;21.80;51.20;;;;;;705069;28;925;-83
2021/11/29 00:34:55;;;;;;;;;;;21.80;51.20;;;;;;705138;28;802;-83
2021/11/29 00:35:16;;;;;;;;;;;21.80;51.20;;;;;;705018;28;833;-84
2021/11/29 00:35:37;;;;;;;;;;;21.80;51.30;;;;;;705101;28;783;-84
2021/11/29 00:35:58;;;;;;;;;;;21.80;51.20;;;;;;705209;28;968;-82
2021/11/29 00:36:18;;;;;;;;;;;21.80;51.20;;;;;;704699;28;1430;-78
2021/11/29 00:36:39;;;;;;;;;;;21.80;51.30;;;;;;704821;28;1648;-86
2021/11/29 00:37:00;;;;;;;;;;;21.80;51.40;;;;;;705639;28;849;-85
2021/11/29 00:37:20;;;;;;;;;;;21.80;51.40;;;;;;705517;28;802;-78
2021/11/29 00:37:41;;;;;;;;;;;21.80;51.50;;;;;;705471;28;948;-83
2021/11/29 00:38:01;;;;;;;;;;;21.80;51.40;;;;;;705567;28;963;-79
2021/11/29 00:38:22;;;;;;;;;;;21.80;51.30;;;;;;705445;28;1039;-83
2021/11/29 00:38:43;;;;;;;;;;;21.80;51.30;;;;;;705646;28;860;-83
2021/11/29 00:39:04;;;;;;;;;;;21.80;51.30;;;;;;705751;28;921;-80
2021/11/29 00:39:24;;;;;;;;;;;21.80;51.30;;;;;;705618;28;845;-82
2021/11/29 00:39:45;;;;;;;;;;;21.80;51.30;;;;;;705618;28;881;-81
2021/11/29 00:40:08;;;;;;;;;;;21.80;51.30;;;;;;705787;28;877;-83
2021/11/29 00:40:29;;;;;;;;;;;21.80;51.30;;;;;;705608;28;1178;-82
2021/11/29 00:40:49;;;;;;;;;;;21.80;51.20;;;;;;705571;28;826;-81
2021/11/29 00:41:10;;;;;;;;;;;21.80;51.20;;;;;;705599;28;821;-79
2021/11/29 00:41:31;;;;;;;;;;;21.80;51.20;;;;;;705724;28;795;-82
2021/11/29 00:41:51;;;;;;;;;;;21.80;51.20;;;;;;705725;28;901;-78
2021/11/29 00:42:12;;;;;;;;;;;21.80;51.20;;;;;;705546;28;857;-84
2021/11/29 00:42:32;;;;;;;;;;;21.80;51.20;;;;;;705726;28;856;-83
2021/11/29 00:42:53;;;;;;;;;;;21.80;51.20;;;;;;705605;28;829;-82
2021/11/29 00:43:13;;;;;;;;;;;21.80;51.20;;;;;;705648;28;798;-79
2021/11/29 00:43:34;;;;;;;;;;;21.80;51.20;;;;;;705309;28;933;-82
2021/11/29 00:43:55;;;;;;;;;;;21.80;51.20;;;;;;705541;28;861;-83
2021/11/29 00:44:15;;;;;;;;;;;21.80;51.30;;;;;;705512;28;853;-84
2021/11/29 00:44:36;;;;;;;;;;;21.80;51.30;;;;;;705163;28;1082;-79
2021/11/29 00:44:56;;;;;;;;;;;21.80;51.40;;;;;;705191;28;1316;-84
2021/11/29 00:45:17;;;;;;;;;;;21.80;51.30;;;;;;705271;28;1359;-82
2021/11/29 00:45:38;;;;;;;;;;;21.80;51.30;;;;;;705467;28;1247;-82
2021/11/29 00:45:58;;;;;;;;;;;21.80;51.40;;;;;;705220;28;1244;-84
2021/11/29 00:46:19;;;;;;;;;;;21.80;51.40;;;;;;705227;28;1185;-84
2021/11/29 00:46:39;;;;;;;;;;;21.80;51.40;;;;;;702351;28;1230;-80
2021/11/29 00:47:00;;;;;;;;;;;21.80;51.30;;;;;;698994;28;1898;-81
2021/11/29 00:47:21;;;;;;;;;;;21.80;51.30;;;;;;699050;28;1182;-82
2021/11/29 00:47:41;;;;;;;;;;;21.70;51.20;;;;;;697648;28;1230;-80
2021/11/29 00:48:02;;;;;;;;;;;21.80;51.40;;;;;;701912;28;1268;-82
2021/11/29 00:48:22;;;;;;;;;;;21.80;51.40;;;;;;700386;28;1253;-79
2021/11/29 00:48:43;;;;;;;;;;;21.70;51.30;;;;;;702385;28;1220;-81
2021/11/29 00:49:04;;;;;;;;;;;21.80;51.30;;;;;;703674;28;1189;-81
2021/11/29 00:49:24;;;;;;;;;;;21.80;51.30;;;;;;705167;28;1259;-79
2021/11/29 00:49:45;;;;;;;;;;;21.80;51.30;;;;;;705430;28;1302;-81
2021/11/29 00:50:07;;;;;;;;;;;21.80;51.30;;;;;;704922;28;1536;-83
2021/11/29 00:50:28;;;;;;;;;;;21.80;51.40;;;;;;705071;28;1336;-83
2021/11/29 00:50:48;;;;;;;;;;;21.80;51.40;;;;;;702289;28;1249;-83
2021/11/29 00:51:09;;;;;;;;;;;21.70;51.30;;;;;;702453;28;1193;-80
2021/11/29 00:51:30;;;;;;;;;;;21.70;51.30;;;;;;702426;28;1194;-83
2021/11/29 00:51:50;;;;;;;;;;;21.70;51.30;;;;;;702920;28;1205;-83
2021/11/29 00:52:11;;;;;;;;;;;21.70;51.30;;;;;;705241;28;1240;-81
2021/11/29 00:52:32;;;;;;;;;;;21.80;51.40;;;;;;705260;28;1181;-85
2021/11/29 00:52:52;;;;;;;;;;;21.70;51.30;;;;;;705659;28;778;-83
2021/11/29 00:53:13;;;;;;;;;;;21.70;51.30;;;;;;705549;28;837;-84
2021/11/29 00:53:33;;;;;;;;;;;21.70;51.40;;;;;;705677;28;873;-79
2021/11/29 00:53:54;;;;;;;;;;;21.70;51.40;;;;;;705864;28;920;-89
2021/11/29 00:54:14;;;;;;;;;;;21.70;51.30;;;;;;705466;28;881;-92
2021/11/29 00:54:35;;;;;;;;;;;21.70;51.40;;;;;;705606;28;877;-84
2021/11/29 00:54:56;;;;;;;;;;;21.70;51.40;;;;;;705455;28;802;-83
2021/11/29 00:55:17;;;;;;;;;;;21.70;51.40;;;;;;702496;28;1297;-80
2021/11/29 00:55:38;;;;;;;;;;;21.70;51.40;;;;;;702721;28;857;-83
2021/11/29 00:55:59;;;;;;;;;;;21.70;51.40;;;;;;703338;28;1086;-92
2021/11/29 00:56:21;;;;;;;;;;;21.70;51.40;;;;;;705435;28;948;-85
2021/11/29 00:56:42;;;;;;;;;;;21.70;51.30;;;;;;705396;28;837;-85
2021/11/29 00:57:02;;;;;;;;;;;21.70;51.40;;;;;;705565;28;881;-81
2021/11/29 00:57:23;;;;;;;;;;;21.70;51.40;;;;;;705289;28;1188;-78
2021/11/29 00:57:44;;;;;;;;;;;21.70;51.40;;;;;;702050;28;1265;-84
2021/11/29 00:58:05;;;;;;;;;;;21.70;51.40;;;;;;702568;28;1415;-82
2021/11/29 00:58:26;;;;;;;;;;;21.70;51.40;;;;;;702565;28;1245;-83
2021/11/29 00:58:47;;;;;;;;;;;21.70;51.40;;;;;;702527;28;775;-80
2021/11/29 00:59:08;;;;;;;;;;;21.70;51.50;;;;;;703075;28;985;-85
2021/11/29 00:59:29;;;;;;;;;;;21.80;51.40;;;;;;705563;28;794;-84
2021/11/29 00:59:49;;;;;;;;;;;21.70;51.40;;;;;;705511;28;787;-82
2021/11/29 01:00:12;;;;;;;;;;;21.70;51.40;;;;;;706090;28;837;-92
2021/11/29 01:00:34;;;;;;;;;;;21.70;51.40;;;;;;703521;28;970;-81
2021/11/29 01:00:54;;;;;;;;;;;21.70;51.40;;;;;;705174;28;1011;-82
2021/11/29 01:01:16;;;;;;;;;;;21.70;51.50;;;;;;705536;28;1075;-92
2021/11/29 01:01:36;;;;;;;;;;;21.70;51.50;;;;;;705648;28;874;-84
2021/11/29 01:01:57;;;;;;;;;;;21.70;51.70;;;;;;705327;28;826;-80
2021/11/29 01:02:17;;;;;;;;;;;21.70;51.60;;;;;;705650;28;802;-79
2021/11/29 01:02:38;;;;;;;;;;;21.80;51.80;;;;;;705533;28;867;-86
2021/11/29 01:02:59;;;;;;;;;;;21.70;51.80;;;;;;705534;28;786;-77
2021/11/29 01:03:19;;;;;;;;;;;21.70;52.00;;;;;;705554;28;916;-82
2021/11/29 01:03:40;;;;;;;;;;;21.70;51.80;;;;;;705670;28;834;-83
2021/11/29 01:04:01;;;;;;;;;;;21.80;51.70;;;;;;705502;28;937;-86
2021/11/29 01:04:21;;;;;;;;;;;21.70;51.50;;;;;;705690;28;858;-85
2021/11/29 01:04:42;;;;;;;;;;;21.70;51.40;;;;;;705862;28;1149;-86
2021/11/29 01:05:03;;;;;;;;;;;21.70;51.70;;;;;;705547;28;898;-85
2021/11/29 01:05:24;;;;;;;;;;;21.70;51.60;;;;;;705728;28;869;-82
2021/11/29 01:05:44;;;;;;;;;;;21.70;51.40;;;;;;705664;28;1079;-81
2021/11/29 01:06:06;;;;;;;;;;;21.70;51.50;;;;;;705278;28;1461;-81
2021/11/29 01:06:26;;;;;;;;;;;21.80;51.60;;;;;;705566;28;807;-80
2021/11/29 01:06:47;;;;;;;;;;;21.70;52.10;;;;;;705632;28;798;-79
2021/11/29 01:07:08;;;;;;;;;;;21.80;51.20;;;;;;705779;28;908;-79
2021/11/29 01:07:28;;;;;;;;;;;21.70;52.60;;;;;;705711;28;866;-81
2021/11/29 01:07:49;;;;;;;;;;;21.70;53.20;;;;;;705750;28;798;-78
2021/11/29 01:08:10;;;;;;;;;;;21.70;53.20;;;;;;705602;28;857;-82
2021/11/29 01:08:30;;;;;;;;;;;21.70;53.20;;;;;;705521;28;919;-80
2021/11/29 01:08:51;;;;;;;;;;;21.70;53.30;;;;;;705594;28;873;-81
2021/11/29 01:09:11;;;;;;;;;;;21.70;53.30;;;;;;705003;28;1273;-80
2021/11/29 01:09:32;;;;;;;;;;;21.70;53.00;;;;;;705533;28;877;-81
2021/11/29 01:09:52;;;;;;;;;;;21.70;53.00;;;;;;702574;28;1077;-81
2021/11/29 01:10:15;;;;;;;;;;;21.70;53.70;;;;;;702588;28;782;-81
2021/11/29 01:10:35;;;;;;;;;;;21.70;53.90;;;;;;702536;28;786;-81
2021/11/29 01:10:56;;;;;;;;;;;21.70;53.40;;;;;;703225;28;810;-80
2021/11/29 01:11:17;;;;;;;;;;;21.70;53.70;;;;;;705490;28;956;-81
2021/11/29 01:11:37;;;;;;;;;;;21.70;53.20;;;;;;705510;28;904;-80
2021/11/29 01:11:58;;;;;;;;;;;21.70;53.10;;;;;;705714;28;893;-80
2021/11/29 01:12:18;;;;;;;;;;;21.70;53.40;;;;;;705658;28;818;-80
2021/11/29 01:12:39;;;;;;;;;;;21.70;53.20;;;;;;705480;28;877;-79
2021/11/29 01:13:00;;;;;;;;;;;21.70;53.40;;;;;;705653;28;794;-80
2021/11/29 01:13:20;;;;;;;;;;;21.70;53.40;;;;;;705688;28;900;-80
2021/11/29 01:13:41;;;;;;;;;;;21.70;53.10;;;;;;705682;27;964;-81
2021/11/29 01:14:02;;;;;;;;;;;21.70;53.10;;;;;;705320;28;1425;-81
2021/11/29 01:14:23;;;;;;;;;;;21.70;53.00;;;;;;705273;28;1065;-81
2021/11/29 01:14:44;;;;;;;;;;;21.70;53.10;;;;;;705286;28;901;-80
2021/11/29 01:15:05;;;;;;;;;;;21.70;52.80;;;;;;702187;28;1190;-80
2021/11/29 01:15:28;;;;;;;;;;;21.70;53.20;;;;;;702713;28;755;-80
2021/11/29 01:15:49;;;;;;;;;;;21.70;53.20;;;;;;703579;28;799;-80
2021/11/29 01:16:09;;;;;;;;;;;21.70;53.10;;;;;;705457;28;774;-81
2021/11/29 01:16:30;;;;;;;;;;;21.70;53.20;;;;;;705388;28;853;-79
2021/11/29 01:16:51;;;;;;;;;;;21.70;53.40;;;;;;705322;28;857;-80
2021/11/29 01:17:11;;;;;;;;;;;21.70;53.40;;;;;;705547;27;781;-80
2021/11/29 01:17:32;;;;;;;;;;;21.70;53.70;;;;;;705699;28;789;-79
2021/11/29 01:17:52;;;;;;;;;;;21.70;53.30;;;;;;705678;28;864;-81
2021/11/29 01:18:13;;;;;;;;;;;21.70;53.10;;;;;;705642;28;810;-81
2021/11/29 01:18:34;;;;;;;;;;;21.70;53.40;;;;;;705444;27;845;-82
2021/11/29 01:18:54;;;;;;;;;;;21.70;53.30;;;;;;705548;28;809;-83
2021/11/29 01:19:15;;;;;;;;;;;21.70;53.40;;;;;;705625;28;830;-83
2021/11/29 01:19:35;;;;;;;;;;;21.70;53.40;;;;;;705608;28;809;-83
2021/11/29 01:19:56;;;;;;;;;;;21.70;53.50;;;;;;705761;28;845;-80
2021/11/29 01:20:17;;;;;;;;;;;21.70;53.40;;;;;;705642;28;876;-80
2021/11/29 01:20:39;;;;;;;;;;;21.70;53.20;;;;;;705276;28;1353;-79
2021/11/29 01:21:00;;;;;;;;;;;21.70;53.20;;;;;;705545;28;857;-79
2021/11/29 01:21:20;;;;;;;;;;;21.70;53.30;;;;;;705628;28;865;-79
2021/11/29 01:21:41;;;;;;;;;;;21.70;52.90;;;;;;705641;28;936;-78
2021/11/29 01:22:03;;;;;;;;;;;21.70;52.90;;;;;;705544;28;935;-80
2021/11/29 01:22:24;;;;;;;;;;;21.70;52.90;;;;;;705551;28;810;-80
2021/11/29 01:22:45;;;;;;;;;;;21.70;53.10;;;;;;705291;28;1529;-79
2021/11/29 01:23:06;;;;;;;;;;;21.70;53.10;;;;;;705298;28;904;-78
2021/11/29 01:23:26;;;;;;;;;;;21.70;53.20;;;;;;705316;28;1377;-80
2021/11/29 01:23:47;;;;;;;;;;;21.70;53.30;;;;;;705428;28;937;-80
2021/11/29 01:24:07;;;;;;;;;;;21.70;53.20;;;;;;705445;28;921;-79
2021/11/29 01:24:28;;;;;;;;;;;21.70;53.70;;;;;;705161;28;893;-79
2021/11/29 01:24:49;;;;;;;;;;;21.70;53.50;;;;;;702624;28;925;-80
2021/11/29 01:25:10;;;;;;;;;;;21.70;53.40;;;;;;702725;28;837;-81
2021/11/29 01:25:31;;;;;;;;;;;21.70;53.60;;;;;;702831;28;865;-80
2021/11/29 01:25:54;;;;;;;;;;;21.70;53.60;;;;;;702762;28;873;-78
2021/11/29 01:26:14;;;;;;;;;;;21.70;54.40;;;;;;702440;28;1118;-78
2021/11/29 01:26:36;;;;;;;;;;;21.70;53.40;;;;;;702542;28;798;-79
2021/11/29 01:26:57;;;;;;;;;;;21.70;53.30;;;;;;702530;28;1959;-81
2021/11/29 01:27:17;;;;;;;;;;;21.70;53.60;;;;;;702385;28;1535;-79
2021/11/29 01:27:38;;;;;;;;;;;21.70;53.50;;;;;;702648;28;826;-78
2021/11/29 01:27:59;;;;;;;;;;;21.70;53.50;;;;;;702659;28;882;-78
2021/11/29 01:28:20;;;;;;;;;;;21.70;53.60;;;;;;702746;28;822;-78
2021/11/29 01:28:41;;;;;;;;;;;21.70;53.70;;;;;;702581;28;979;-78
2021/11/29 01:29:02;;;;;;;;;;;21.70;53.40;;;;;;702824;28;849;-79
2021/11/29 01:29:22;;;;;;;;;;;21.70;54.70;;;;;;702596;28;929;-79
2021/11/29 01:29:43;;;;;;;;;;;21.70;53.60;;;;;;703005;28;978;-79
2021/11/29 01:30:05;;;;;;;;;;;21.70;53.60;;;;;;705023;28;1221;-78
2021/11/29 01:30:25;;;;;;;;;;;21.70;54.60;;;;;;705423;28;1439;-78
2021/11/29 01:30:46;;;;;;;;;;;21.70;53.50;;;;;;704269;28;1084;-79
2021/11/29 01:31:07;;;;;;;;;;;21.70;53.60;;;;;;705562;28;814;-79
2021/11/29 01:31:27;;;;;;;;;;;21.70;53.60;;;;;;705467;27;853;-79
2021/11/29 01:31:48;;;;;;;;;;;21.70;53.60;;;;;;705604;28;874;-80
2021/11/29 01:32:09;;;;;;;;;;;21.70;53.60;;;;;;705612;28;888;-78
2021/11/29 01:32:29;;;;;;;;;;;21.70;53.70;;;;;;703764;28;943;-78
2021/11/29 01:32:50;;;;;;;;;;;21.70;53.80;;;;;;705581;28;864;-78
2021/11/29 01:33:10;;;;;;;;;;;21.70;53.60;;;;;;705521;28;1023;-80
2021/11/29 01:33:31;;;;;;;;;;;21.70;53.70;;;;;;705540;28;944;-79
2021/11/29 01:33:52;;;;;;;;;;;21.70;53.60;;;;;;705642;28;813;-81
2021/11/29 01:34:12;;;;;;;;;;;21.70;53.60;;;;;;705587;28;892;-80
2021/11/29 01:34:33;;;;;;;;;;;21.70;53.90;;;;;;704778;27;1625;-80
2021/11/29 01:34:53;;;;;;;;;;;21.70;53.90;;;;;;703362;28;1736;-81
2021/11/29 01:35:14;;;;;;;;;;;21.70;53.90;;;;;;703355;28;1668;-79
2021/11/29 01:35:35;;;;;;;;;;;21.70;53.80;;;;;;705552;27;852;-80
2021/11/29 01:35:55;;;;;;;;;;;21.70;53.80;;;;;;705741;28;790;-81
2021/11/29 01:36:16;;;;;;;;;;;21.70;53.70;;;;;;704884;28;1235;-82
2021/11/29 01:36:37;;;;;;;;;;;21.70;53.60;;;;;;705312;28;1477;-81
2021/11/29 01:36:58;;;;;;;;;;;21.70;53.80;;;;;;705430;28;904;-80
2021/11/29 01:37:18;;;;;;;;;;;21.70;53.50;;;;;;705293;28;937;-79
2021/11/29 01:37:39;;;;;;;;;;;21.70;53.50;;;;;;705220;28;912;-82
2021/11/29 01:37:59;;;;;;;;;;;21.70;53.60;;;;;;704994;28;924;-80
2021/11/29 01:38:20;;;;;;;;;;;21.70;53.60;;;;;;702306;28;1249;-80
2021/11/29 01:38:41;;;;;;;;;;;21.70;53.50;;;;;;702536;28;844;-80
2021/11/29 01:39:04;;;;;;;;;;;21.70;53.50;;;;;;702615;28;837;-80
2021/11/29 01:39:24;;;;;;;;;;;21.70;53.40;;;;;;702474;28;806;-78
2021/11/29 01:39:45;;;;;;;;;;;21.70;53.60;;;;;;702395;28;1045;-81
2021/11/29 01:40:07;;;;;;;;;;;21.70;53.50;;;;;;702690;28;793;-78
2021/11/29 01:40:29;;;;;;;;;;;21.70;53.60;;;;;;702612;28;944;-79
2021/11/29 01:40:50;;;;;;;;;;;21.70;53.60;;;;;;705363;28;1571;-81
2021/11/29 01:41:12;;;;;;;;;;;21.70;53.70;;;;;;705521;28;927;-78
2021/11/29 01:41:33;;;;;;;;;;;21.70;53.60;;;;;;705144;28;1129;-80
2021/11/29 01:41:54;;;;;;;;;;;21.70;53.50;;;;;;705144;28;1255;-80
2021/11/29 01:42:14;;;;;;;;;;;21.70;53.60;;;;;;705440;27;1425;-79
2021/11/29 01:42:35;;;;;;;;;;;21.70;53.50;;;;;;705473;28;1530;-80
2021/11/29 01:42:58;;;;;;;;;;;21.70;53.40;;;;;;705495;28;1222;-79
2021/11/29 01:43:19;;;;;;;;;;;21.70;53.30;;;;;;705444;28;861;-81
2021/11/29 01:43:40;;;;;;;;;;;21.70;53.40;;;;;;705467;28;837;-81
2021/11/29 01:44:01;;;;;;;;;;;21.70;53.40;;;;;;705578;28;825;-81
2021/11/29 01:44:21;;;;;;;;;;;21.70;53.40;;;;;;705089;28;1172;-80
2021/11/29 01:44:42;;;;;;;;;;;21.70;53.50;;;;;;705492;28;904;-81
2021/11/29 01:45:03;;;;;;;;;;;21.70;53.40;;;;;;705594;28;916;-79
2021/11/29 01:45:25;;;;;;;;;;;21.70;53.40;;;;;;705131;28;1400;-82
2021/11/29 01:45:50;;;;;;;;;;;21.70;53.30;;;;;;705353;28;821;-80
2021/11/29 01:46:10;;;;;;;;;;;21.70;53.30;;;;;;705265;28;774;-80
2021/11/29 01:46:31;;;;;;;;;;;21.70;53.30;;;;;;705395;28;782;-80
2021/11/29 01:46:52;;;;;;;;;;;21.70;53.20;;;;;;705244;28;1935;-81
2021/11/29 01:47:13;;;;;;;;;;;21.70;53.20;;;;;;705247;28;837;-80
2021/11/29 01:47:33;;;;;;;;;;;21.70;53.20;;;;;;705363;28;908;-81
2021/11/29 01:47:54;;;;;;;;;;;21.70;53.20;;;;;;705555;28;869;-78
2021/11/29 01:48:15;;;;;;;;;;;21.70;53.20;;;;;;705378;28;940;-80
2021/11/29 01:48:35;;;;;;;;;;;21.70;53.20;;;;;;704813;28;898;-81
2021/11/29 01:48:56;;;;;;;;;;;21.70;53.20;;;;;;705238;28;825;-80
2021/11/29 01:49:16;;;;;;;;;;;21.70;53.20;;;;;;704772;28;1531;-78
2021/11/29 01:49:37;;;;;;;;;;;21.70;53.20;;;;;;705396;28;802;-78
2021/11/29 01:49:57;;;;;;;;;;;21.70;53.30;;;;;;705291;28;885;-79
2021/11/29 01:50:20;;;;;;;;;;;21.70;53.20;;;;;;705263;28;798;-79
2021/11/29 01:50:42;;;;;;;;;;;21.70;53.20;;;;;;705496;28;802;-80
2021/11/29 01:51:03;;;;;;;;;;;21.70;53.20;;;;;;705533;28;861;-81
2021/11/29 01:51:23;;;;;;;;;;;21.60;53.10;;;;;;705463;28;856;-81
2021/11/29 01:51:44;;;;;;;;;;;21.70;53.10;;;;;;705429;28;873;-80
2021/11/29 01:52:05;;;;;;;;;;;21.70;53.10;;;;;;705632;28;857;-79
2021/11/29 01:52:25;;;;;;;;;;;21.70;53.10;;;;;;705396;28;933;-80
2021/11/29 01:52:46;;;;;;;;;;;21.70;53.10;;;;;;705392;28;1480;-81
2021/11/29 01:53:07;;;;;;;;;;;21.70;53.20;;;;;;705500;28;857;-82
2021/11/29 01:53:28;;;;;;;;;;;21.70;53.20;;;;;;705611;28;865;-80
2021/11/29 01:53:49;;;;;;;;;;;21.70;53.20;;;;;;705463;28;960;-80
2021/11/29 01:54:10;;;;;;;;;;;21.70;53.10;;;;;;705421;28;813;-81
2021/11/29 01:54:30;;;;;;;;;;;21.60;53.00;;;;;;705505;28;889;-80
2021/11/29 01:54:51;;;;;;;;;;;21.70;53.10;;;;;;705313;28;1233;-80
2021/11/29 01:55:11;;;;;;;;;;;21.70;53.10;;;;;;705443;27;889;-80
2021/11/29 01:55:32;;;;;;;;;;;21.60;53.10;;;;;;705550;28;872;-80
2021/11/29 01:55:57;;;;;;;;;;;21.60;53.00;;;;;;705364;28;888;-81
2021/11/29 01:56:18;;;;;;;;;;;21.60;53.00;;;;;;705480;28;834;-79
2021/11/29 01:56:38;;;;;;;;;;;21.60;53.10;;;;;;705428;27;916;-82
2021/11/29 01:56:59;;;;;;;;;;;21.70;53.10;;;;;;705522;28;782;-81
2021/11/29 01:57:20;;;;;;;;;;;21.70;53.10;;;;;;705114;28;1233;-81
2021/11/29 01:57:40;;;;;;;;;;;21.60;53.10;;;;;;705521;28;501;-80
2021/11/29 01:58:01;;;;;;;;;;;21.60;53.20;;;;;;705530;28;872;-78
2021/11/29 01:58:21;;;;;;;;;;;21.70;53.30;;;;;;704900;28;1491;-80
2021/11/29 01:58:42;;;;;;;;;;;21.70;53.30;;;;;;705366;28;825;-80
2021/11/29 01:59:03;;;;;;;;;;;21.70;53.50;;;;;;705266;28;1271;-80
2021/11/29 01:59:24;;;;;;;;;;;21.60;53.50;;;;;;704615;28;1266;-81
2021/11/29 01:59:44;;;;;;;;;;;21.70;53.50;;;;;;704866;28;1239;-79
2021/11/29 02:00:07;;;;;;;;;;;21.70;53.50;;;;;;704432;28;1342;-81
2021/11/29 02:00:29;;;;;;;;;;;21.70;53.50;;;;;;704912;28;1430;-81
2021/11/29 02:00:52;;;;;;;;;;;21.70;53.40;;;;;;705021;28;1345;-80
2021/11/29 02:01:15;;;;;;;;;;;21.70;53.30;;;;;;705235;28;1313;-81
2021/11/29 02:01:36;;;;;;;;;;;21.70;53.30;;;;;;705258;28;1110;-81
2021/11/29 02:01:56;;;;;;;;;;;21.70;53.30;;;;;;708232;27;1305;-82
2021/11/29 02:02:17;;;;;;;;;;;21.70;53.30;;;;;;709506;27;1449;-79
2021/11/29 02:02:38;;;;;;;;;;;21.70;53.30;;;;;;709699;27;1468;-82
2021/11/29 02:02:59;;;;;;;;;;;21.70;53.40;;;;;;710334;27;1412;-79
2021/11/29 02:03:23;;;;;;;;;;;21.70;53.30;;;;;;708229;27;1420;-81
2021/11/29 02:03:45;;;;;;;;;;;21.70;53.30;;;;;;707253;27;1337;-82
2021/11/29 02:04:07;;;;;;;;;;;21.70;53.30;;;;;;705513;28;1285;-79
2021/11/29 02:04:28;;;;;;;;;;;21.70;53.30;;;;;;704175;28;1306;-79
2021/11/29 02:04:49;;;;;;;;;;;21.70;53.30;;;;;;704833;28;1439;-81
2021/11/29 02:05:09;;;;;;;;;;;21.70;53.30;;;;;;704769;28;1311;-81
2021/11/29 02:05:30;;;;;;;;;;;21.70;53.20;;;;;;705022;28;1341;-80
2021/11/29 02:05:51;;;;;;;;;;;21.70;53.20;;;;;;704952;28;1183;-79
2021/11/29 02:06:12;;;;;;;;;;;21.70;53.20;;;;;;702483;28;1172;-78
2021/11/29 02:06:33;;;;;;;;;;;21.70;53.20;;;;;;705243;28;1329;-80
2021/11/29 02:06:56;;;;;;;;;;;21.70;53.20;;;;;;704944;28;1969;-81